sensor_id;sensor_type;location;lat;lon;timestamp;P1;durP1;ratioP1;P2;durP2;ratioP2
16600;SDS011;34891;48.164;11.572;2023-02-24T00:02:48;14.30;;;5.25;;
16600;SDS011;34891;48.164;11.572;2023-02-24T00:07:51;12.73;;;4.80;;
16600;SDS011;34891;48.164;11.572;2023-02-24T00:12:55;12.10;;;4.75;;
16600;SDS011;34891;48.164;11.572;2023-02-24T00:17:59;8.23;;;3.28;;
16600;SDS011;34891;48.164;11.572;2023-02-24T00:23:07;10.90;;;4.60;;
16600;SDS011;34891;48.164;11.572;2023-02-24T00:28:12;11.27;;;4.43;;
16600;SDS011;34891;48.164;11.572;2023-02-24T00:33:15;12.15;;;5.35;;
16600;SDS011;34891;48.164;11.572;2023-02-24T00:38:23;8.65;;;2.33;;
16600;SDS011;34891;48.164;11.572;2023-02-24T00:43:28;13.30;;;5.13;;
16600;SDS011;34891;48.164;11.572;2023-02-24T00:48:31;13.80;;;5.72;;
16600;SDS011;34891;48.164;11.572;2023-02-24T00:53:35;12.02;;;4.68;;
16600;SDS011;34891;48.164;11.572;2023-02-24T01:03:44;10.57;;;4.28;;
16600;SDS011;34891;48.164;11.572;2023-02-24T01:08:49;10.00;;;3.90;;
16600;SDS011;34891;48.164;11.572;2023-02-24T01:13:52;11.10;;;4.13;;
16600;SDS011;34891;48.164;11.572;2023-02-24T01:18:57;7.88;;;4.15;;
16600;SDS011;34891;48.164;11.572;2023-02-24T01:23:59;8.95;;;3.92;;
16600;SDS011;34891;48.164;11.572;2023-02-24T01:29:02;12.18;;;4.03;;
16600;SDS011;34891;48.164;11.572;2023-02-24T01:34:07;10.80;;;4.80;;
16600;SDS011;34891;48.164;11.572;2023-02-24T01:39:11;7.78;;;3.10;;
16600;SDS011;34891;48.164;11.572;2023-02-24T01:49:38;5.25;;;2.88;;
16600;SDS011;34891;48.164;11.572;2023-02-24T01:54:43;12.60;;;3.97;;
16600;SDS011;34891;48.164;11.572;2023-02-24T01:59:47;10.90;;;3.75;;
16600;SDS011;34891;48.164;11.572;2023-02-24T02:09:56;9.40;;;4.25;;
16600;SDS011;34891;48.164;11.572;2023-02-24T02:15:00;8.63;;;3.97;;
16600;SDS011;34891;48.164;11.572;2023-02-24T02:25:36;12.43;;;4.32;;
16600;SDS011;34891;48.164;11.572;2023-02-24T02:30:53;10.32;;;2.97;;
16600;SDS011;34891;48.164;11.572;2023-02-24T02:36:05;10.18;;;4.35;;
16600;SDS011;34891;48.164;11.572;2023-02-24T02:41:15;9.98;;;5.00;;
16600;SDS011;34891;48.164;11.572;2023-02-24T02:46:22;13.00;;;4.47;;
16600;SDS011;34891;48.164;11.572;2023-02-24T02:51:37;1.40;;;1.17;;
16600;SDS011;34891;48.164;11.572;2023-02-24T02:56:43;6.63;;;2.67;;
16600;SDS011;34891;48.164;11.572;2023-02-24T03:01:49;11.50;;;4.00;;
16600;SDS011;34891;48.164;11.572;2023-02-24T03:06:59;4.35;;;2.35;;
16600;SDS011;34891;48.164;11.572;2023-02-24T03:12:13;6.97;;;2.22;;
16600;SDS011;34891;48.164;11.572;2023-02-24T03:17:29;8.18;;;3.47;;
16600;SDS011;34891;48.164;11.572;2023-02-24T03:27:38;8.48;;;3.03;;
16600;SDS011;34891;48.164;11.572;2023-02-24T03:32:44;9.35;;;3.50;;
16600;SDS011;34891;48.164;11.572;2023-02-24T03:37:56;7.43;;;3.88;;
16600;SDS011;34891;48.164;11.572;2023-02-24T03:43:05;12.70;;;3.38;;
16600;SDS011;34891;48.164;11.572;2023-02-24T03:48:10;10.20;;;4.20;;
16600;SDS011;34891;48.164;11.572;2023-02-24T03:53:30;9.27;;;4.03;;
16600;SDS011;34891;48.164;11.572;2023-02-24T03:58:41;3.72;;;1.73;;
16600;SDS011;34891;48.164;11.572;2023-02-24T04:03:48;6.40;;;2.58;;
16600;SDS011;34891;48.164;11.572;2023-02-24T04:08:55;7.53;;;2.85;;
16600;SDS011;34891;48.164;11.572;2023-02-24T04:14:04;11.70;;;3.67;;
16600;SDS011;34891;48.164;11.572;2023-02-24T04:19:09;7.07;;;3.25;;
16600;SDS011;34891;48.164;11.572;2023-02-24T04:24:15;6.35;;;2.53;;
16600;SDS011;34891;48.164;11.572;2023-02-24T04:29:23;8.13;;;3.03;;
16600;SDS011;34891;48.164;11.572;2023-02-24T04:34:27;3.05;;;1.25;;
16600;SDS011;34891;48.164;11.572;2023-02-24T04:39:33;10.95;;;3.05;;
16600;SDS011;34891;48.164;11.572;2023-02-24T04:44:40;5.88;;;2.53;;
16600;SDS011;34891;48.164;11.572;2023-02-24T04:49:43;5.30;;;2.55;;
16600;SDS011;34891;48.164;11.572;2023-02-24T04:54:46;7.07;;;2.30;;
16600;SDS011;34891;48.164;11.572;2023-02-24T04:59:51;2.05;;;1.55;;
16600;SDS011;34891;48.164;11.572;2023-02-24T05:09:57;10.52;;;3.00;;
16600;SDS011;34891;48.164;11.572;2023-02-24T05:15:01;3.33;;;1.45;;
16600;SDS011;34891;48.164;11.572;2023-02-24T05:20:07;5.68;;;2.20;;
16600;SDS011;34891;48.164;11.572;2023-02-24T05:25:27;2.55;;;1.88;;
16600;SDS011;34891;48.164;11.572;2023-02-24T05:30:34;6.43;;;2.40;;
16600;SDS011;34891;48.164;11.572;2023-02-24T05:35:37;5.75;;;2.45;;
16600;SDS011;34891;48.164;11.572;2023-02-24T05:40:43;11.15;;;3.70;;
16600;SDS011;34891;48.164;11.572;2023-02-24T05:45:48;5.28;;;2.88;;
16600;SDS011;34891;48.164;11.572;2023-02-24T05:50:56;5.30;;;2.30;;
16600;SDS011;34891;48.164;11.572;2023-02-24T05:55:59;2.75;;;1.55;;
16600;SDS011;34891;48.164;11.572;2023-02-24T06:01:09;8.15;;;3.05;;
16600;SDS011;34891;48.164;11.572;2023-02-24T06:06:16;8.02;;;2.95;;
16600;SDS011;34891;48.164;11.572;2023-02-24T06:11:19;16.35;;;3.53;;
16600;SDS011;34891;48.164;11.572;2023-02-24T06:16:24;8.07;;;3.20;;
16600;SDS011;34891;48.164;11.572;2023-02-24T06:21:27;10.40;;;3.50;;
16600;SDS011;34891;48.164;11.572;2023-02-24T06:26:30;9.88;;;3.75;;
16600;SDS011;34891;48.164;11.572;2023-02-24T06:31:35;6.97;;;2.17;;
16600;SDS011;34891;48.164;11.572;2023-02-24T06:36:38;7.07;;;2.75;;
16600;SDS011;34891;48.164;11.572;2023-02-24T06:41:44;1.23;;;0.90;;
16600;SDS011;34891;48.164;11.572;2023-02-24T06:46:48;8.90;;;2.80;;
16600;SDS011;34891;48.164;11.572;2023-02-24T06:51:51;8.30;;;2.63;;
16600;SDS011;34891;48.164;11.572;2023-02-24T06:56:55;9.07;;;3.83;;
16600;SDS011;34891;48.164;11.572;2023-02-24T07:02:00;8.90;;;3.55;;
16600;SDS011;34891;48.164;11.572;2023-02-24T07:07:04;5.97;;;2.95;;
16600;SDS011;34891;48.164;11.572;2023-02-24T07:12:08;8.32;;;3.50;;
16600;SDS011;34891;48.164;11.572;2023-02-24T07:22:16;9.05;;;2.42;;
16600;SDS011;34891;48.164;11.572;2023-02-24T07:27:25;10.48;;;4.32;;
16600;SDS011;34891;48.164;11.572;2023-02-24T07:32:28;10.60;;;3.80;;
16600;SDS011;34891;48.164;11.572;2023-02-24T07:37:33;8.98;;;3.60;;
16600;SDS011;34891;48.164;11.572;2023-02-24T07:42:36;4.00;;;2.38;;
16600;SDS011;34891;48.164;11.572;2023-02-24T07:47:40;8.20;;;4.15;;
16600;SDS011;34891;48.164;11.572;2023-02-24T07:52:45;8.60;;;2.90;;
16600;SDS011;34891;48.164;11.572;2023-02-24T07:57:49;11.23;;;4.63;;
16600;SDS011;34891;48.164;11.572;2023-02-24T08:02:53;14.13;;;5.18;;
16600;SDS011;34891;48.164;11.572;2023-02-24T08:07:57;6.90;;;3.47;;
16600;SDS011;34891;48.164;11.572;2023-02-24T08:13:01;11.38;;;4.40;;
16600;SDS011;34891;48.164;11.572;2023-02-24T08:18:03;12.55;;;5.15;;
16600;SDS011;34891;48.164;11.572;2023-02-24T08:23:07;10.60;;;4.65;;
16600;SDS011;34891;48.164;11.572;2023-02-24T08:28:13;6.47;;;3.22;;
16600;SDS011;34891;48.164;11.572;2023-02-24T08:33:18;12.32;;;5.47;;
16600;SDS011;34891;48.164;11.572;2023-02-24T08:38:23;9.20;;;3.47;;
16600;SDS011;34891;48.164;11.572;2023-02-24T08:43:29;9.00;;;3.35;;
16600;SDS011;34891;48.164;11.572;2023-02-24T08:48:35;9.75;;;3.17;;
16600;SDS011;34891;48.164;11.572;2023-02-24T08:53:40;8.77;;;3.45;;
16600;SDS011;34891;48.164;11.572;2023-02-24T08:58:43;15.85;;;5.00;;
16600;SDS011;34891;48.164;11.572;2023-02-24T09:03:48;4.88;;;2.08;;
16600;SDS011;34891;48.164;11.572;2023-02-24T09:08:54;10.98;;;3.88;;
16600;SDS011;34891;48.164;11.572;2023-02-24T09:14:17;16.83;;;5.18;;
16600;SDS011;34891;48.164;11.572;2023-02-24T09:19:29;9.48;;;2.92;;
16600;SDS011;34891;48.164;11.572;2023-02-24T09:25:04;12.33;;;5.40;;
16600;SDS011;34891;48.164;11.572;2023-02-24T09:30:19;18.52;;;5.97;;
16600;SDS011;34891;48.164;11.572;2023-02-24T09:35:37;13.95;;;5.53;;
16600;SDS011;34891;48.164;11.572;2023-02-24T09:40:44;17.55;;;6.65;;
16600;SDS011;34891;48.164;11.572;2023-02-24T09:45:55;17.65;;;6.68;;
16600;SDS011;34891;48.164;11.572;2023-02-24T09:50:59;11.60;;;5.60;;
16600;SDS011;34891;48.164;11.572;2023-02-24T09:56:09;17.55;;;7.80;;
16600;SDS011;34891;48.164;11.572;2023-02-24T10:01:22;20.77;;;9.13;;
16600;SDS011;34891;48.164;11.572;2023-02-24T10:06:34;22.90;;;9.57;;
16600;SDS011;34891;48.164;11.572;2023-02-24T10:11:41;13.18;;;5.43;;
16600;SDS011;34891;48.164;11.572;2023-02-24T10:16:54;18.00;;;9.30;;
16600;SDS011;34891;48.164;11.572;2023-02-24T10:22:24;20.17;;;9.45;;
16600;SDS011;34891;48.164;11.572;2023-02-24T10:27:33;16.10;;;8.98;;
16600;SDS011;34891;48.164;11.572;2023-02-24T10:32:41;18.80;;;10.00;;
16600;SDS011;34891;48.164;11.572;2023-02-24T10:37:47;18.55;;;9.23;;
16600;SDS011;34891;48.164;11.572;2023-02-24T10:43:03;19.33;;;8.57;;
16600;SDS011;34891;48.164;11.572;2023-02-24T10:48:16;19.88;;;8.68;;
16600;SDS011;34891;48.164;11.572;2023-02-24T10:53:42;17.95;;;8.43;;
16600;SDS011;34891;48.164;11.572;2023-02-24T10:59:02;19.13;;;8.00;;
16600;SDS011;34891;48.164;11.572;2023-02-24T11:04:22;18.55;;;8.57;;
16600;SDS011;34891;48.164;11.572;2023-02-24T11:10:02;17.83;;;7.20;;
16600;SDS011;34891;48.164;11.572;2023-02-24T11:15:16;19.88;;;7.78;;
16600;SDS011;34891;48.164;11.572;2023-02-24T11:20:53;17.95;;;7.68;;
16600;SDS011;34891;48.164;11.572;2023-02-24T11:25:57;23.67;;;7.82;;
16600;SDS011;34891;48.164;11.572;2023-02-24T11:31:06;15.60;;;6.25;;
16600;SDS011;34891;48.164;11.572;2023-02-24T11:36:11;16.00;;;6.85;;
16600;SDS011;34891;48.164;11.572;2023-02-24T11:41:22;14.90;;;4.95;;
16600;SDS011;34891;48.164;11.572;2023-02-24T11:46:32;17.70;;;6.50;;
16600;SDS011;34891;48.164;11.572;2023-02-24T11:51:36;14.98;;;6.05;;
16600;SDS011;34891;48.164;11.572;2023-02-24T11:56:40;17.93;;;7.10;;
16600;SDS011;34891;48.164;11.572;2023-02-24T12:01:47;20.27;;;6.32;;
16600;SDS011;34891;48.164;11.572;2023-02-24T12:06:54;19.05;;;8.25;;
16600;SDS011;34891;48.164;11.572;2023-02-24T12:11:59;20.90;;;7.65;;
16600;SDS011;34891;48.164;11.572;2023-02-24T12:17:09;22.73;;;8.15;;
16600;SDS011;34891;48.164;11.572;2023-02-24T12:22:14;19.20;;;7.60;;
16600;SDS011;34891;48.164;11.572;2023-02-24T12:27:19;19.03;;;7.63;;
16600;SDS011;34891;48.164;11.572;2023-02-24T12:32:29;19.10;;;7.97;;
16600;SDS011;34891;48.164;11.572;2023-02-24T12:37:44;21.10;;;8.27;;
16600;SDS011;34891;48.164;11.572;2023-02-24T12:42:51;19.20;;;7.97;;
16600;SDS011;34891;48.164;11.572;2023-02-24T12:48:01;16.73;;;7.00;;
16600;SDS011;34891;48.164;11.572;2023-02-24T12:53:08;16.27;;;6.45;;
16600;SDS011;34891;48.164;11.572;2023-02-24T12:58:15;17.25;;;6.32;;
16600;SDS011;34891;48.164;11.572;2023-02-24T13:03:24;18.20;;;6.47;;
16600;SDS011;34891;48.164;11.572;2023-02-24T13:08:33;16.10;;;6.13;;
16600;SDS011;34891;48.164;11.572;2023-02-24T13:13:46;18.00;;;6.43;;
16600;SDS011;34891;48.164;11.572;2023-02-24T13:19:02;14.70;;;5.93;;
16600;SDS011;34891;48.164;11.572;2023-02-24T13:24:05;19.88;;;7.05;;
16600;SDS011;34891;48.164;11.572;2023-02-24T13:29:08;16.85;;;6.78;;
16600;SDS011;34891;48.164;11.572;2023-02-24T13:34:14;18.75;;;7.13;;
16600;SDS011;34891;48.164;11.572;2023-02-24T13:39:20;16.45;;;6.53;;
16600;SDS011;34891;48.164;11.572;2023-02-24T13:44:25;19.13;;;7.53;;
16600;SDS011;34891;48.164;11.572;2023-02-24T13:49:31;11.90;;;4.68;;
16600;SDS011;34891;48.164;11.572;2023-02-24T13:54:42;13.48;;;4.47;;
16600;SDS011;34891;48.164;11.572;2023-02-24T13:59:56;18.67;;;6.85;;
16600;SDS011;34891;48.164;11.572;2023-02-24T14:05:07;21.10;;;7.18;;
16600;SDS011;34891;48.164;11.572;2023-02-24T14:10:13;20.17;;;7.93;;
16600;SDS011;34891;48.164;11.572;2023-02-24T14:15:25;17.80;;;6.10;;
16600;SDS011;34891;48.164;11.572;2023-02-24T14:20:31;13.98;;;5.65;;
16600;SDS011;34891;48.164;11.572;2023-02-24T14:25:44;14.57;;;5.72;;
16600;SDS011;34891;48.164;11.572;2023-02-24T14:30:49;19.92;;;7.60;;
16600;SDS011;34891;48.164;11.572;2023-02-24T14:35:55;20.15;;;7.47;;
16600;SDS011;34891;48.164;11.572;2023-02-24T14:40:58;23.55;;;8.75;;
16600;SDS011;34891;48.164;11.572;2023-02-24T14:46:07;19.25;;;6.80;;
16600;SDS011;34891;48.164;11.572;2023-02-24T14:51:14;10.57;;;4.70;;
16600;SDS011;34891;48.164;11.572;2023-02-24T14:56:21;21.67;;;8.10;;
16600;SDS011;34891;48.164;11.572;2023-02-24T15:01:26;19.88;;;7.30;;
16600;SDS011;34891;48.164;11.572;2023-02-24T15:06:33;13.10;;;4.65;;
16600;SDS011;34891;48.164;11.572;2023-02-24T15:11:41;24.33;;;7.68;;
16600;SDS011;34891;48.164;11.572;2023-02-24T15:16:44;20.45;;;7.65;;
16600;SDS011;34891;48.164;11.572;2023-02-24T15:21:50;17.33;;;7.43;;
16600;SDS011;34891;48.164;11.572;2023-02-24T15:26:54;17.30;;;6.55;;
16600;SDS011;34891;48.164;11.572;2023-02-24T15:31:58;11.60;;;4.53;;
16600;SDS011;34891;48.164;11.572;2023-02-24T15:37:11;18.88;;;5.88;;
16600;SDS011;34891;48.164;11.572;2023-02-24T15:42:17;10.73;;;3.97;;
16600;SDS011;34891;48.164;11.572;2023-02-24T15:47:22;14.43;;;5.45;;
16600;SDS011;34891;48.164;11.572;2023-02-24T15:52:27;15.15;;;6.53;;
16600;SDS011;34891;48.164;11.572;2023-02-24T15:57:31;13.88;;;4.78;;
16600;SDS011;34891;48.164;11.572;2023-02-24T16:02:35;16.20;;;5.15;;
16600;SDS011;34891;48.164;11.572;2023-02-24T16:07:40;25.35;;;7.38;;
16600;SDS011;34891;48.164;11.572;2023-02-24T16:12:47;8.20;;;3.55;;
16600;SDS011;34891;48.164;11.572;2023-02-24T16:17:51;16.30;;;5.88;;
16600;SDS011;34891;48.164;11.572;2023-02-24T16:22:56;21.52;;;6.65;;
16600;SDS011;34891;48.164;11.572;2023-02-24T16:27:59;19.13;;;5.85;;
16600;SDS011;34891;48.164;11.572;2023-02-24T16:33:03;22.88;;;7.05;;
16600;SDS011;34891;48.164;11.572;2023-02-24T16:38:08;11.32;;;5.43;;
16600;SDS011;34891;48.164;11.572;2023-02-24T16:43:15;15.77;;;5.35;;
16600;SDS011;34891;48.164;11.572;2023-02-24T16:48:18;23.95;;;6.60;;
16600;SDS011;34891;48.164;11.572;2023-02-24T16:53:23;17.27;;;5.60;;
16600;SDS011;34891;48.164;11.572;2023-02-24T16:58:27;15.57;;;5.50;;
16600;SDS011;34891;48.164;11.572;2023-02-24T17:03:30;10.82;;;2.58;;
16600;SDS011;34891;48.164;11.572;2023-02-24T17:08:36;7.97;;;3.13;;
16600;SDS011;34891;48.164;11.572;2023-02-24T17:13:51;13.70;;;3.83;;
16600;SDS011;34891;48.164;11.572;2023-02-24T17:18:54;19.63;;;5.43;;
16600;SDS011;34891;48.164;11.572;2023-02-24T17:23:58;12.93;;;4.47;;
16600;SDS011;34891;48.164;11.572;2023-02-24T17:29:02;13.68;;;4.88;;
16600;SDS011;34891;48.164;11.572;2023-02-24T17:34:04;10.37;;;3.60;;
16600;SDS011;34891;48.164;11.572;2023-02-24T17:39:09;18.50;;;4.32;;
16600;SDS011;34891;48.164;11.572;2023-02-24T17:44:11;7.35;;;2.75;;
16600;SDS011;34891;48.164;11.572;2023-02-24T17:49:14;6.97;;;2.92;;
16600;SDS011;34891;48.164;11.572;2023-02-24T17:54:19;15.33;;;2.80;;
16600;SDS011;34891;48.164;11.572;2023-02-24T17:59:21;7.30;;;2.05;;
16600;SDS011;34891;48.164;11.572;2023-02-24T18:04:24;4.30;;;1.80;;
16600;SDS011;34891;48.164;11.572;2023-02-24T18:09:28;9.13;;;1.65;;
16600;SDS011;34891;48.164;11.572;2023-02-24T18:14:30;9.27;;;2.25;;
16600;SDS011;34891;48.164;11.572;2023-02-24T18:19:33;8.35;;;2.58;;
16600;SDS011;34891;48.164;11.572;2023-02-24T18:24:37;6.75;;;2.03;;
16600;SDS011;34891;48.164;11.572;2023-02-24T18:34:42;10.77;;;2.45;;
16600;SDS011;34891;48.164;11.572;2023-02-24T18:39:47;5.78;;;1.38;;
16600;SDS011;34891;48.164;11.572;2023-02-24T18:44:51;9.73;;;3.40;;
16600;SDS011;34891;48.164;11.572;2023-02-24T18:49:53;4.93;;;2.05;;
16600;SDS011;34891;48.164;11.572;2023-02-24T19:00:04;6.60;;;2.38;;
16600;SDS011;34891;48.164;11.572;2023-02-24T19:05:43;9.63;;;2.55;;
16600;SDS011;34891;48.164;11.572;2023-02-24T19:10:50;15.75;;;4.20;;
16600;SDS011;34891;48.164;11.572;2023-02-24T19:16:05;16.65;;;3.67;;
16600;SDS011;34891;48.164;11.572;2023-02-24T19:21:20;18.67;;;3.65;;
16600;SDS011;34891;48.164;11.572;2023-02-24T19:26:28;7.87;;;2.90;;
16600;SDS011;34891;48.164;11.572;2023-02-24T19:31:35;15.55;;;3.60;;
16600;SDS011;34891;48.164;11.572;2023-02-24T19:37:08;13.82;;;4.00;;
16600;SDS011;34891;48.164;11.572;2023-02-24T19:42:27;11.70;;;3.58;;
16600;SDS011;34891;48.164;11.572;2023-02-24T19:53:36;12.53;;;2.47;;
16600;SDS011;34891;48.164;11.572;2023-02-24T19:59:02;18.55;;;4.03;;
16600;SDS011;34891;48.164;11.572;2023-02-24T20:04:22;10.57;;;3.50;;
16600;SDS011;34891;48.164;11.572;2023-02-24T20:09:30;13.77;;;4.03;;
16600;SDS011;34891;48.164;11.572;2023-02-24T20:14:45;18.13;;;3.95;;
16600;SDS011;34891;48.164;11.572;2023-02-24T20:20:11;17.10;;;4.00;;
16600;SDS011;34891;48.164;11.572;2023-02-24T20:25:34;13.85;;;4.28;;
16600;SDS011;34891;48.164;11.572;2023-02-24T20:30:46;15.68;;;4.78;;
16600;SDS011;34891;48.164;11.572;2023-02-24T20:35:52;18.10;;;5.07;;
16600;SDS011;34891;48.164;11.572;2023-02-24T20:41:15;20.10;;;6.15;;
16600;SDS011;34891;48.164;11.572;2023-02-24T20:46:20;16.20;;;6.30;;
16600;SDS011;34891;48.164;11.572;2023-02-24T20:51:28;17.33;;;6.32;;
16600;SDS011;34891;48.164;11.572;2023-02-24T20:56:39;18.35;;;6.13;;
16600;SDS011;34891;48.164;11.572;2023-02-24T21:02:10;19.17;;;6.00;;
16600;SDS011;34891;48.164;11.572;2023-02-24T21:07:15;14.77;;;5.38;;
16600;SDS011;34891;48.164;11.572;2023-02-24T21:12:29;15.85;;;5.22;;
16600;SDS011;34891;48.164;11.572;2023-02-24T21:17:36;11.63;;;3.83;;
16600;SDS011;34891;48.164;11.572;2023-02-24T21:22:42;13.40;;;3.03;;
16600;SDS011;34891;48.164;11.572;2023-02-24T21:27:53;7.00;;;2.70;;
16600;SDS011;34891;48.164;11.572;2023-02-24T21:32:57;7.20;;;2.33;;
16600;SDS011;34891;48.164;11.572;2023-02-24T21:38:01;6.50;;;2.53;;
16600;SDS011;34891;48.164;11.572;2023-02-24T21:43:14;8.73;;;2.70;;
16600;SDS011;34891;48.164;11.572;2023-02-24T21:48:23;10.95;;;3.10;;
16600;SDS011;34891;48.164;11.572;2023-02-24T21:53:32;6.22;;;2.55;;
16600;SDS011;34891;48.164;11.572;2023-02-24T21:58:45;10.02;;;3.08;;
16600;SDS011;34891;48.164;11.572;2023-02-24T22:03:51;11.93;;;3.63;;
16600;SDS011;34891;48.164;11.572;2023-02-24T22:08:55;7.40;;;3.03;;
16600;SDS011;34891;48.164;11.572;2023-02-24T22:14:18;14.88;;;3.97;;
16600;SDS011;34891;48.164;11.572;2023-02-24T22:19:28;7.30;;;2.47;;
16600;SDS011;34891;48.164;11.572;2023-02-24T22:24:40;14.70;;;4.70;;
16600;SDS011;34891;48.164;11.572;2023-02-24T22:29:51;8.90;;;3.40;;
16600;SDS011;34891;48.164;11.572;2023-02-24T22:34:58;6.57;;;2.67;;
16600;SDS011;34891;48.164;11.572;2023-02-24T22:40:11;6.78;;;2.65;;
16600;SDS011;34891;48.164;11.572;2023-02-24T22:45:44;5.97;;;2.50;;
16600;SDS011;34891;48.164;11.572;2023-02-24T22:50:48;4.40;;;2.25;;
16600;SDS011;34891;48.164;11.572;2023-02-24T22:56:06;8.15;;;3.13;;
16600;SDS011;34891;48.164;11.572;2023-02-24T23:01:18;4.30;;;2.15;;
16600;SDS011;34891;48.164;11.572;2023-02-24T23:06:27;7.82;;;3.00;;
16600;SDS011;34891;48.164;11.572;2023-02-24T23:11:35;8.90;;;2.60;;
16600;SDS011;34891;48.164;11.572;2023-02-24T23:16:46;10.45;;;4.20;;
16600;SDS011;34891;48.164;11.572;2023-02-24T23:21:55;14.00;;;5.13;;
16600;SDS011;34891;48.164;11.572;2023-02-24T23:27:06;12.30;;;4.28;;
16600;SDS011;34891;48.164;11.572;2023-02-24T23:37:37;15.52;;;5.22;;
16600;SDS011;34891;48.164;11.572;2023-02-24T23:47:54;12.25;;;4.57;;
16600;SDS011;34891;48.164;11.572;2023-02-24T23:53:00;9.27;;;3.63;;
16600;SDS011;34891;48.164;11.572;2023-02-24T23:58:06;11.35;;;4.32;;
